createdAt,value
2019-05-19T00:01:04.738Z,7.75
2019-05-19T00:06:08.217Z,7.47
2019-05-19T00:11:11.435Z,6.62
2019-05-19T00:16:14.666Z,6.90
2019-05-19T00:21:17.860Z,8.25
2019-05-19T00:26:21.068Z,7.00
2019-05-19T00:31:24.304Z,8.78
2019-05-19T00:36:27.499Z,9.20
2019-05-19T00:41:30.716Z,7.33
2019-05-19T00:46:33.927Z,6.90
2019-05-19T00:51:37.140Z,7.97
2019-05-19T00:56:40.350Z,9.55
2019-05-19T01:01:43.569Z,6.15
2019-05-19T01:06:46.782Z,12.37
2019-05-19T01:11:49.996Z,7.53
2019-05-19T01:16:53.206Z,9.20
2019-05-19T01:21:56.413Z,9.85
2019-05-19T01:26:59.633Z,7.08
2019-05-19T01:32:02.838Z,8.83
2019-05-19T01:37:06.050Z,8.43
2019-05-19T01:42:09.266Z,8.43
2019-05-19T01:47:12.482Z,7.75
2019-05-19T01:52:15.693Z,8.58
2019-05-19T01:57:18.911Z,8.13
2019-05-19T02:02:22.111Z,10.93
2019-05-19T02:07:25.369Z,6.37
2019-05-19T02:12:28.578Z,7.10
2019-05-19T02:17:31.790Z,7.25
2019-05-19T02:22:35.026Z,7.03
2019-05-19T02:27:38.241Z,7.40
2019-05-19T02:32:41.461Z,7.03
2019-05-19T02:37:44.667Z,5.97
2019-05-19T02:42:47.865Z,5.28
2019-05-19T02:47:51.095Z,7.42
2019-05-19T02:52:54.310Z,7.92
2019-05-19T02:57:57.526Z,9.98
2019-05-19T03:03:00.765Z,8.28
2019-05-19T03:08:03.984Z,7.67
2019-05-19T03:13:07.180Z,6.20
2019-05-19T03:18:10.406Z,7.55
2019-05-19T03:23:13.607Z,7.35
2019-05-19T03:28:16.827Z,8.88
2019-05-19T03:33:24.421Z,6.12
2019-05-19T03:38:27.596Z,7.58
2019-05-19T03:43:30.813Z,7.33
2019-05-19T03:48:34.045Z,9.18
2019-05-19T03:53:37.255Z,5.78
2019-05-19T03:58:40.474Z,7.35
2019-05-19T04:03:43.696Z,7.05
2019-05-19T04:08:46.901Z,7.12
2019-05-19T04:13:50.110Z,6.97
2019-05-19T04:18:53.339Z,6.87
2019-05-19T04:23:56.559Z,7.72
2019-05-19T04:28:59.763Z,6.03
2019-05-19T04:34:02.990Z,8.23
2019-05-19T04:39:06.738Z,6.12
2019-05-19T04:44:09.965Z,7.53
2019-05-19T04:49:13.179Z,7.42
2019-05-19T04:54:16.400Z,7.87
2019-05-19T04:59:19.611Z,7.80
2019-05-19T05:04:28.799Z,7.45
2019-05-19T05:09:27.771Z,5.80
2019-05-19T05:14:30.983Z,5.95
2019-05-19T05:19:34.210Z,6.37
2019-05-19T05:24:37.434Z,5.67
2019-05-19T05:29:40.705Z,7.92
2019-05-19T05:34:43.929Z,6.35
2019-05-19T05:39:47.140Z,7.30
2019-05-19T05:44:50.354Z,7.92
2019-05-19T05:49:53.586Z,6.40
2019-05-19T05:54:56.798Z,7.22
2019-05-19T06:00:00.016Z,6.15
2019-05-19T06:05:03.419Z,5.03
2019-05-19T06:10:07.806Z,7.42
2019-05-19T06:15:11.023Z,5.97
2019-05-19T06:20:14.246Z,4.70
2019-05-19T06:25:17.470Z,7.15
2019-05-19T06:30:20.686Z,6.37
2019-05-19T06:35:23.922Z,4.83
2019-05-19T06:40:27.128Z,5.80
2019-05-19T06:45:30.478Z,5.58
2019-05-19T06:50:33.760Z,5.87
2019-05-19T06:55:36.965Z,5.95
2019-05-19T07:00:40.246Z,5.28
2019-05-19T07:05:43.492Z,6.47
2019-05-19T07:10:46.689Z,5.20
2019-05-19T07:15:49.906Z,5.25
2019-05-19T07:20:53.138Z,4.62
2019-05-19T07:25:56.345Z,4.17
2019-05-19T07:30:59.576Z,5.80
2019-05-19T07:36:02.793Z,5.42
2019-05-19T07:41:06.006Z,5.17
2019-05-19T07:46:09.219Z,5.47
2019-05-19T07:51:12.468Z,5.00
2019-05-19T07:56:15.674Z,4.83
2019-05-19T08:01:18.892Z,5.22
2019-05-19T08:06:22.118Z,7.42
2019-05-19T08:11:25.344Z,6.30
2019-05-19T08:16:28.568Z,5.28
2019-05-19T08:21:31.781Z,6.70
2019-05-19T08:26:35.008Z,4.67
2019-05-19T08:31:38.227Z,4.20
2019-05-19T08:36:41.522Z,4.20
2019-05-19T08:41:44.726Z,5.78
2019-05-19T08:46:47.942Z,5.00
2019-05-19T08:51:51.199Z,5.20
2019-05-19T08:56:54.397Z,4.87
2019-05-19T09:01:58.364Z,5.30
2019-05-19T09:07:01.598Z,3.85
2019-05-19T09:12:04.810Z,3.95
2019-05-19T09:17:08.018Z,5.12
2019-05-19T09:22:11.285Z,4.67
2019-05-19T09:27:14.489Z,4.70
2019-05-19T09:32:17.683Z,5.10
2019-05-19T09:37:20.925Z,5.45
2019-05-19T09:42:24.145Z,5.55
2019-05-19T09:47:27.350Z,4.83
2019-05-19T09:52:30.580Z,5.78
2019-05-19T09:57:33.792Z,5.28
2019-05-19T10:02:37.013Z,5.25
2019-05-19T10:07:40.237Z,4.03
2019-05-19T10:12:43.449Z,4.87
2019-05-19T10:17:46.667Z,4.35
2019-05-19T10:22:49.905Z,5.05
2019-05-19T10:27:53.118Z,4.33
2019-05-19T10:32:58.729Z,5.37
2019-05-19T10:38:01.280Z,4.37
2019-05-19T10:43:04.509Z,4.72
2019-05-19T10:48:07.726Z,5.22
2019-05-19T10:53:10.948Z,5.08
2019-05-19T10:58:14.160Z,4.87
2019-05-19T11:03:17.377Z,5.70
2019-05-19T11:08:20.620Z,4.70
2019-05-19T11:13:23.839Z,4.60
2019-05-19T11:18:27.091Z,4.97
2019-05-19T11:23:30.319Z,3.95
2019-05-19T11:28:33.568Z,4.20
2019-05-19T11:33:36.735Z,3.47
2019-05-19T11:38:39.960Z,4.42
2019-05-19T11:43:43.175Z,3.75
2019-05-19T11:48:46.387Z,3.75
2019-05-19T11:53:49.619Z,4.05
2019-05-19T11:58:52.833Z,4.53
2019-05-19T12:03:56.055Z,3.98
2019-05-19T12:08:59.285Z,3.83
2019-05-19T12:14:02.511Z,3.35
2019-05-19T12:19:05.724Z,4.83
2019-05-19T12:24:08.950Z,3.90
2019-05-19T12:29:12.156Z,4.08
2019-05-19T12:34:15.362Z,3.47
2019-05-19T12:39:18.598Z,5.35
2019-05-19T12:44:21.798Z,5.25
2019-05-19T12:49:25.025Z,5.10
2019-05-19T12:54:28.348Z,3.92
2019-05-19T12:59:31.543Z,3.98
2019-05-19T13:04:34.750Z,3.80
2019-05-19T13:09:37.974Z,3.25
2019-05-19T13:14:41.176Z,5.08
2019-05-19T13:19:44.424Z,5.08
2019-05-19T13:24:47.631Z,3.30
2019-05-19T13:29:50.841Z,2.42
2019-05-19T13:34:54.059Z,3.77
2019-05-19T13:39:57.259Z,4.60
2019-05-19T13:45:01.057Z,3.58
2019-05-19T13:50:08.865Z,4.28
2019-05-19T13:55:12.253Z,3.95
2019-05-19T14:00:15.471Z,4.83
2019-05-19T14:05:18.684Z,3.62
2019-05-19T14:10:21.893Z,4.00
2019-05-19T14:15:25.097Z,3.02
2019-05-19T14:20:28.322Z,3.55
2019-05-19T14:25:31.542Z,3.27
2019-05-19T14:30:34.769Z,3.42
2019-05-19T14:35:37.986Z,3.27
2019-05-19T14:40:41.383Z,3.47
2019-05-19T14:45:44.581Z,2.47
2019-05-19T14:50:47.827Z,3.42
2019-05-19T14:55:51.038Z,3.45
2019-05-19T15:00:54.257Z,2.27
2019-05-19T15:05:57.479Z,4.05
2019-05-19T15:11:00.693Z,2.10
2019-05-19T15:16:03.909Z,2.70
2019-05-19T15:21:07.118Z,2.45
2019-05-19T15:26:10.336Z,2.25
2019-05-19T15:31:13.549Z,2.98
2019-05-19T15:36:16.752Z,2.98
2019-05-19T15:41:19.995Z,2.67
2019-05-19T15:46:23.199Z,3.08
2019-05-19T15:51:29.107Z,3.30
2019-05-19T15:56:31.387Z,2.37
2019-05-19T16:01:34.597Z,2.98
2019-05-19T16:06:39.169Z,2.12
2019-05-19T16:11:42.599Z,2.55
2019-05-19T16:16:45.824Z,2.70
2019-05-19T16:21:49.045Z,2.25
2019-05-19T16:26:52.258Z,2.25
2019-05-19T16:31:55.471Z,2.85
2019-05-19T16:36:58.687Z,3.00
2019-05-19T16:42:01.898Z,2.95
2019-05-19T16:47:05.119Z,2.27
2019-05-19T16:52:09.212Z,2.20
2019-05-19T16:57:12.421Z,2.00
2019-05-19T17:02:15.634Z,2.42
2019-05-19T17:07:18.862Z,3.08
2019-05-19T17:12:22.078Z,2.12
2019-05-19T17:17:25.296Z,3.55
2019-05-19T17:22:28.515Z,1.87
2019-05-19T17:27:31.731Z,1.98
2019-05-19T17:32:34.946Z,2.40
2019-05-19T17:37:38.164Z,2.87
2019-05-19T17:42:41.375Z,2.00
2019-05-19T17:47:44.585Z,2.47
2019-05-19T17:52:47.798Z,2.67
2019-05-19T17:57:51.009Z,2.55
2019-05-19T18:02:54.222Z,2.60
2019-05-19T18:07:57.434Z,2.75
2019-05-19T18:13:00.646Z,2.92
2019-05-19T18:18:03.880Z,4.10
2019-05-19T18:23:07.161Z,2.52
2019-05-19T18:28:10.370Z,2.42
2019-05-19T18:33:13.585Z,2.15
2019-05-19T18:38:16.803Z,3.02
2019-05-19T18:43:20.017Z,3.30
2019-05-19T18:48:23.542Z,3.12
2019-05-19T18:53:26.958Z,3.15
2019-05-19T18:58:30.150Z,3.22
2019-05-19T19:03:33.365Z,2.08
2019-05-19T19:08:37.901Z,2.52
2019-05-19T19:13:41.379Z,2.17
2019-05-19T19:18:44.579Z,2.85
2019-05-19T19:23:47.839Z,2.20
2019-05-19T19:28:51.050Z,3.00
2019-05-19T19:33:54.266Z,2.45
2019-05-19T19:38:57.477Z,2.42
2019-05-19T19:44:00.684Z,1.82
2019-05-19T19:49:03.896Z,2.00
2019-05-19T19:54:07.101Z,2.15
2019-05-19T19:59:10.311Z,2.98
2019-05-19T20:04:13.521Z,3.10
2019-05-19T20:09:16.729Z,1.95
2019-05-19T20:14:19.941Z,2.33
2019-05-19T20:19:23.199Z,5.78
2019-05-19T20:24:26.376Z,4.67
2019-05-19T20:29:29.587Z,2.72
2019-05-19T20:34:32.793Z,2.08
2019-05-19T20:39:36.004Z,2.50
2019-05-19T20:44:39.208Z,2.90
2019-05-19T20:49:42.421Z,2.40
2019-05-19T20:54:45.629Z,1.90
2019-05-19T20:59:48.837Z,2.55
2019-05-19T21:04:52.040Z,2.70
2019-05-19T21:09:55.264Z,2.92
2019-05-19T21:14:58.472Z,2.58
2019-05-19T21:20:02.258Z,3.20
2019-05-19T21:25:06.880Z,4.25
2019-05-19T21:30:10.089Z,4.95
2019-05-19T21:35:13.302Z,2.27
2019-05-19T21:40:16.520Z,2.40
2019-05-19T21:45:19.899Z,2.02
2019-05-19T21:50:23.108Z,2.67
2019-05-19T21:55:26.332Z,2.72
2019-05-19T22:00:30.566Z,2.92
2019-05-19T22:05:33.774Z,3.35
2019-05-19T22:10:36.998Z,2.05
2019-05-19T22:15:40.208Z,2.45
2019-05-19T22:20:43.461Z,2.62
2019-05-19T22:25:46.681Z,2.98
2019-05-19T22:30:49.911Z,1.98
2019-05-19T22:35:53.105Z,2.80
2019-05-19T22:40:56.326Z,2.98
2019-05-19T22:45:59.540Z,2.00
2019-05-19T22:51:02.754Z,2.87
2019-05-19T22:56:06.006Z,2.75
2019-05-19T23:01:09.308Z,3.77
2019-05-19T23:06:12.490Z,2.83
2019-05-19T23:11:15.712Z,2.67
2019-05-19T23:16:18.923Z,2.40
2019-05-19T23:21:22.119Z,2.10
2019-05-19T23:26:25.338Z,2.70
2019-05-19T23:31:28.551Z,3.30
2019-05-19T23:36:31.762Z,4.42
2019-05-19T23:41:34.980Z,2.22
2019-05-19T23:46:38.189Z,3.50
2019-05-19T23:51:41.396Z,1.75
2019-05-19T23:56:44.629Z,3.62
